Time;durP1;ratioP1;P1;durP2;ratioP2;P2;SDS_P1;SDS_P2;PMS_P1;PMS_P2;Temp;Humidity;BMP_temperature;BMP_pressure;BME280_temperature;BME280_humidity;BME280_pressure;Samples;Min_cycle;Max_cycle;Signal;HPM_P1;HPM_P2
2022/11/09 00:00:38;;;;;;;44.40;23.80;;;;;;;3.37;87.69;100232.62;106620;1302;141298;-63
2022/11/09 00:03:04;;;;;;;52.00;28.60;;;;;;;3.36;87.95;100230.03;106770;1303;22125;-62
2022/11/09 00:05:31;;;;;;;48.00;27.40;;;;;;;3.34;88.02;100234.66;106640;1302;140133;-62
2022/11/09 00:07:58;;;;;;;58.70;27.80;;;;;;;3.34;87.78;100236.89;106751;1294;22132;-62
2022/11/09 00:10:25;;;;;;;57.40;28.50;;;;;;;3.33;87.64;100236.64;106649;1288;22146;-62
2022/11/09 00:12:52;;;;;;;;;;;;;;;3.32;87.62;100238.17;103596;1289;138974;-62
2022/11/09 00:15:19;;;;;;;45.00;27.20;;;;;;;3.31;87.78;100237.30;102554;1309;24281;-62
2022/11/09 00:17:46;;;;;;;;;;;;;;;3.28;87.80;100235.29;102453;1282;138141;-62
2022/11/09 00:20:12;;;;;;;40.00;22.90;;;;;;;3.17;87.61;100215.59;102480;1295;22488;-62
2022/11/09 00:22:39;;;;;;;;;;;;;;;3.24;87.62;100235.12;102332;1309;138074;-62
2022/11/09 00:25:07;;;;;;;37.90;22.90;;;;;;;3.23;87.79;100234.06;102575;1288;23666;-61
2022/11/09 00:27:35;;;;;;;40.30;24.30;;;;;;;3.21;88.05;100233.55;102487;1295;24360;-62
2022/11/09 00:30:02;;;;;;;38.10;23.20;;;;;;;3.19;88.03;100239.63;102304;1280;138683;-61
2022/11/09 00:32:28;;;;;;;;;;;;;;;3.18;87.89;100245.67;102411;1307;24395;-61
2022/11/09 00:34:55;;;;;;;37.40;21.90;;;;;;;3.15;87.83;100245.53;102288;1287;125843;-62
2022/11/09 00:37:22;;;;;;;;;;;;;;;3.13;88.06;100248.19;102451;1288;25242;-61
2022/11/09 00:39:49;;;;;;;35.10;22.70;;;;;;;3.06;88.15;100240.45;102354;1294;22484;-62
2022/11/09 00:42:16;;;;;;;39.40;25.60;;;;;;;3.08;88.10;100245.40;102319;1288;140247;-62
2022/11/09 00:44:43;;;;;;;38.30;22.30;;;;;;;3.05;88.11;100245.90;102394;1284;24920;-62
2022/11/09 00:47:09;;;;;;;;;;;;;;;3.03;88.13;100246.92;102368;1309;138155;-63
2022/11/09 00:49:37;;;;;;;32.40;20.30;;;;;;;3.00;87.93;100246.23;106414;1297;22179;-63
2022/11/09 00:52:04;;;;;;;35.50;19.40;;;;;;;2.98;88.24;100252.05;106735;1302;22162;-63
2022/11/09 00:54:31;;;;;;;32.90;20.20;;;;;;;2.96;87.81;100255.75;106515;1291;139647;-63
2022/11/09 00:56:57;;;;;;;49.00;25.10;;;;;;;2.94;87.92;100255.43;106694;1302;22190;-63
2022/11/09 00:59:25;;;;;;;39.10;22.20;;;;;;;2.93;87.77;100252.15;106587;1301;141232;-63
2022/11/09 01:01:52;;;;;;;36.20;22.40;;;;;;;2.92;87.58;100249.37;106700;1300;22212;-63
2022/11/09 01:04:18;;;;;;;;;;;;;;;2.91;87.59;100246.79;106623;1302;22501;-62
2022/11/09 01:06:45;;;;;;;34.60;20.40;;;;;;;2.89;87.59;100245.28;106587;1302;124281;-62
2022/11/09 01:09:12;;;;;;;;;;;;;;;2.86;87.60;100247.25;106753;1302;22498;-62
2022/11/09 01:11:38;;;;;;;34.50;21.30;;;;;;;2.84;87.43;100249.42;106658;1296;125430;-62
2022/11/09 01:14:05;;;;;;;32.80;19.80;;;;;;;2.83;87.72;100245.98;106723;1303;22236;-62
2022/11/09 01:16:33;;;;;;;25.20;17.30;;;;;;;2.82;87.55;100242.52;106521;1302;138346;-63
2022/11/09 01:19:02;;;;;;;29.40;19.00;;;;;;;2.81;87.63;100244.08;106735;1303;22229;-63
2022/11/09 01:21:29;;;;;;;23.80;16.50;;;;;;;2.80;87.51;100245.11;106726;1302;22321;-62
2022/11/09 01:23:58;;;;;;;24.50;16.10;;;;;;;2.80;87.60;100247.05;106608;1303;138260;-62
2022/11/09 01:26:26;;;;;;;23.90;16.20;;;;;;;2.81;87.76;100250.88;106708;1302;22305;-62
2022/11/09 01:28:53;;;;;;;;;;;;;;;2.82;87.74;100244.47;106619;1302;138476;-62
2022/11/09 01:31:20;;;;;;;24.80;15.00;;;;;;;2.83;87.77;100244.60;106702;1303;22106;-63
2022/11/09 01:33:47;;;;;;;23.60;14.90;;;;;;;2.83;87.89;100244.16;106733;1297;22135;-62
2022/11/09 01:36:16;;;;;;;24.60;15.20;;;;;;;2.85;88.04;100248.27;106645;1299;138421;-63
2022/11/09 01:38:42;;;;;;;29.10;15.60;;;;;;;2.87;87.77;100248.46;106745;1284;22114;-62
2022/11/09 01:41:11;;;;;;;;;;;;;;;2.89;87.97;100250.30;106606;1293;138423;-62
2022/11/09 01:43:38;;;;;;;16.20;11.80;;;;;;;2.90;87.74;100249.30;106769;1302;22160;-62
2022/11/09 01:46:13;;;;;;;19.60;14.20;;;;;;;2.91;87.78;100252.79;106700;1302;22112;-62
2022/11/09 01:48:45;;;;;;;19.10;12.90;;;;;;;2.90;87.91;100254.77;106618;1303;138252;-63
2022/11/09 01:51:34;;;;;;;24.00;14.60;;;;;;;2.92;87.50;100256.44;106734;1303;22111;-63
2022/11/09 01:54:04;;;;;;;20.10;12.50;;;;;;;2.91;87.53;100258.67;106631;1302;139998;-62
2022/11/09 01:56:31;;;;;;;16.90;11.50;;;;;;;2.91;87.32;100255.06;106647;1302;22143;-62
2022/11/09 01:58:59;;;;;;;20.40;13.00;;;;;;;2.91;87.37;100260.32;106517;1302;139210;-62
2022/11/09 02:01:28;;;;;;;21.20;14.60;;;;;;;2.90;87.36;100261.06;106575;1303;22145;-62
2022/11/09 02:04:03;;;;;;;22.30;13.90;;;;;;;2.90;87.29;100261.23;106674;1298;22312;-62
2022/11/09 02:06:29;;;;;;;21.40;13.00;;;;;;;2.90;87.29;100261.84;106491;1297;138183;-63
2022/11/09 02:09:03;;;;;;;18.60;11.90;;;;;;;2.89;87.26;100262.66;106741;1302;22227;-63
2022/11/09 02:11:30;;;;;;;19.00;13.00;;;;;;;2.88;87.36;100260.81;106184;1303;138351;-62
2022/11/09 02:13:59;;;;;;;17.80;11.50;;;;;;;2.87;87.11;100256.08;102147;1290;22604;-62
2022/11/09 02:16:26;;;;;;;17.80;11.70;;;;;;;2.86;86.95;100257.27;102308;1295;22600;-61
2022/11/09 02:18:55;;;;;;;15.20;11.00;;;;;;;2.83;87.38;100255.55;106260;1310;139115;-62
2022/11/09 02:21:27;;;;;;;17.00;10.50;;;;;;;2.88;87.57;100260.56;106659;1302;22323;-63
2022/11/09 02:23:54;;;;;;;16.30;11.20;;;;;;;2.87;87.42;100259.52;106473;1303;139435;-62
2022/11/09 02:26:24;;;;;;;17.10;9.90;;;;;;;2.86;87.32;100259.16;106708;1303;22219;-62
2022/11/09 02:28:53;;;;;;;15.80;10.00;;;;;;;2.85;87.24;100260.12;106489;1303;138418;-63
2022/11/09 02:31:20;;;;;;;17.40;9.90;;;;;;;2.84;87.13;100258.41;106518;1303;22152;-63
2022/11/09 02:33:55;;;;;;;14.20;8.50;;;;;;;2.83;87.19;100258.86;106613;1303;22228;-63
2022/11/09 02:36:22;;;;;;;17.00;10.20;;;;;;;2.83;87.05;100255.73;106431;1304;138576;-63
2022/11/09 02:38:50;;;;;;;18.40;10.70;;;;;;;2.82;87.35;100254.52;102995;1304;24084;-62
2022/11/09 02:41:17;;;;;;;14.50;9.70;;;;;;;2.82;87.13;100255.45;106646;1302;139143;-63
2022/11/09 02:43:44;;;;;;;13.70;9.30;;;;;;;2.82;87.22;100254.36;106569;1276;22148;-63
2022/11/09 02:46:11;;;;;;;;;;;;;;;2.81;87.09;100252.66;106601;1302;22365;-63
2022/11/09 02:48:39;;;;;;;16.20;10.20;;;;;;;2.79;86.85;100255.94;106505;1305;125807;-62
2022/11/09 02:51:05;;;;;;;12.80;8.40;;;;;;;2.78;87.00;100260.36;106754;1302;22250;-62
2022/11/09 02:53:32;;;;;;;13.20;9.40;;;;;;;2.79;87.12;100258.38;106613;1300;139051;-62
2022/11/09 02:55:59;;;;;;;24.90;15.20;;;;;;;2.79;87.25;100259.91;105134;1305;22656;-61
2022/11/09 02:58:26;;;;;;;25.60;17.20;;;;;;;2.81;87.99;100261.81;102401;1289;22509;-62
2022/11/09 03:00:53;;;;;;;28.80;18.90;;;;;;;2.83;88.84;100262.90;106304;1307;138967;-63
2022/11/09 03:03:20;;;;;;;26.30;18.90;;;;;;;2.82;89.58;100261.40;106715;1297;22225;-63
2022/11/09 03:05:49;;;;;;;26.40;18.20;;;;;;;2.82;90.18;100257.46;106616;1303;139133;-62
2022/11/09 03:08:16;;;;;;;21.20;15.50;;;;;;;2.85;90.45;100259.74;106753;1305;22124;-63
2022/11/09 03:10:44;;;;;;;21.40;14.90;;;;;;;2.84;90.33;100257.33;106548;1305;138721;-63
2022/11/09 03:13:11;;;;;;;21.10;13.50;;;;;;;2.81;90.11;100257.91;106645;1305;22870;-62
2022/11/09 03:15:39;;;;;;;21.80;13.00;;;;;;;2.79;89.94;100262.44;106542;1300;22248;-63
2022/11/09 03:18:06;;;;;;;19.60;13.60;;;;;;;2.79;89.95;100256.73;106454;1305;138290;-63
2022/11/09 03:20:33;;;;;;;;;;;;;;;2.79;89.88;100258.64;106677;1289;22369;-63
2022/11/09 03:23:01;;;;;;;19.90;13.70;;;;;;;2.81;90.04;100257.13;106640;1305;125409;-63
2022/11/09 03:25:29;;;;;;;24.20;12.90;;;;;;;2.82;90.11;100259.20;106628;1305;22169;-63
2022/11/09 03:28:00;;;;;;;16.30;11.70;;;;;;;2.84;89.77;100260.10;106580;1296;22168;-63
2022/11/09 03:30:27;;;;;;;19.90;11.80;;;;;;;2.83;89.45;100260.84;106513;1305;138060;-63
2022/11/09 03:33:02;;;;;;;17.80;12.00;;;;;;;2.82;89.08;100260.89;106582;1305;22336;-63
2022/11/09 03:35:29;;;;;;;16.40;11.40;;;;;;;2.81;89.19;100260.23;106543;1305;139077;-63
2022/11/09 03:37:56;;;;;;;16.60;11.50;;;;;;;2.81;89.16;100260.96;106600;1302;22303;-63
2022/11/09 03:40:23;;;;;;;;;;;;;;;2.79;88.73;100262.23;106753;1297;22348;-62
2022/11/09 03:42:50;;;;;;;19.00;9.80;;;;;;;2.77;88.47;100261.33;106628;1297;124430;-63
2022/11/09 03:45:16;;;;;;;;;;;;;;;2.74;88.39;100262.02;106568;1305;22352;-63
2022/11/09 03:47:44;;;;;;;12.90;9.30;;;;;;;2.73;88.26;100264.11;106633;1305;125110;-63
2022/11/09 03:50:11;;;;;;;13.20;9.20;;;;;;;2.72;88.44;100261.08;106700;1302;22970;-63
2022/11/09 03:52:38;;;;;;;14.10;10.00;;;;;;;2.70;88.06;100257.45;106665;1293;139855;-63
2022/11/09 03:55:06;;;;;;;;;;;;;;;2.69;87.98;100257.77;106801;1302;22361;-63
2022/11/09 03:57:47;;;;;;;17.60;9.50;;;;;;;2.69;88.03;100255.36;102542;1305;25370;-62
2022/11/09 04:00:15;;;;;;;;;;;;;;;2.68;88.32;100249.52;102371;1304;138027;-61
2022/11/09 04:02:42;;;;;;;18.20;9.60;;;;;;;2.69;88.38;100254.22;106812;1302;22156;-62
2022/11/09 04:05:09;;;;;;;;;;;;;;;2.71;88.60;100257.42;106602;1303;138822;-62
2022/11/09 04:07:36;;;;;;;16.70;10.90;;;;;;;2.74;88.85;100258.11;106788;1296;22309;-62
2022/11/09 04:10:04;;;;;;;18.80;10.90;;;;;;;2.75;89.10;100260.77;106696;1305;22683;-63
2022/11/09 04:12:30;;;;;;;18.40;10.70;;;;;;;2.77;89.42;100257.86;106633;1302;138284;-62
2022/11/09 04:14:57;;;;;;;;;;;;;;;2.82;89.39;100259.54;106700;1288;22360;-62
2022/11/09 04:17:24;;;;;;;14.80;8.90;;;;;;;2.83;89.23;100262.83;106599;1287;126622;-63
2022/11/09 04:19:51;;;;;;;16.60;10.20;;;;;;;2.83;89.30;100263.36;106764;1293;22037;-62
2022/11/09 04:22:17;;;;;;;14.00;9.40;;;;;;;2.85;89.07;100263.38;106721;1301;22380;-62
2022/11/09 04:24:44;;;;;;;14.50;10.00;;;;;;;2.87;89.17;100266.56;106613;1303;139005;-62
2022/11/09 04:27:11;;;;;;;;;;;;;;;2.87;89.13;100268.71;103156;1295;22460;-61
2022/11/09 04:29:38;;;;;;;17.10;9.50;;;;;;;2.88;88.90;100272.70;102363;1295;125902;-62
2022/11/09 04:32:04;;;;;;;13.10;9.80;;;;;;;2.86;88.80;100273.45;102390;1304;22598;-62
2022/11/09 04:34:31;;;;;;;;;;;;;;;2.83;88.48;100276.73;102269;1289;139225;-61
2022/11/09 04:36:58;;;;;;;13.70;9.30;;;;;;;2.80;88.36;100278.10;102365;1294;24249;-61
2022/11/09 04:39:24;;;;;;;15.10;9.70;;;;;;;2.78;88.53;100282.46;102296;1295;23338;-62
2022/11/09 04:41:51;;;;;;;;;;;;;;;2.76;88.46;100281.27;102284;1284;138144;-62
2022/11/09 04:44:18;;;;;;;15.50;10.90;;;;;;;2.73;88.34;100285.60;102357;1295;22492;-62
2022/11/09 04:46:45;;;;;;;16.90;9.60;;;;;;;2.71;88.27;100287.76;102293;1297;140262;-62
2022/11/09 04:49:11;;;;;;;;;;;;;;;2.69;88.41;100284.31;102422;1289;25932;-62
2022/11/09 04:51:38;;;;;;;16.30;10.20;;;;;;;2.69;88.68;100285.13;102434;1284;22522;-62
2022/11/09 04:54:05;;;;;;;17.20;10.30;;;;;;;2.67;88.61;100290.73;102202;1295;138157;-63
2022/11/09 04:56:32;;;;;;;;;;;;;;;2.66;88.44;100291.55;102539;1301;25345;-62
2022/11/09 04:58:58;;;;;;;18.50;11.30;;;;;;;2.65;88.44;100293.30;102344;1289;125006;-61
2022/11/09 05:01:25;;;;;;;21.60;11.40;;;;;;;2.63;88.35;100301.05;102347;1284;22479;-62
2022/11/09 05:03:52;;;;;;;22.80;13.20;;;;;;;2.62;88.24;100301.41;102397;1295;24227;-62
2022/11/09 05:06:31;;;;;;;21.40;12.80;;;;;;;2.61;88.25;100304.17;102302;1289;139110;-62
2022/11/09 05:09:00;;;;;;;21.90;12.60;;;;;;;2.60;88.36;100305.17;102379;1295;24259;-61
2022/11/09 05:11:28;;;;;;;25.40;15.40;;;;;;;2.59;88.13;100309.02;102333;1310;138403;-62
2022/11/09 05:13:55;;;;;;;23.60;15.00;;;;;;;2.58;87.99;100315.02;102365;1295;22476;-62
2022/11/09 05:16:22;;;;;;;28.60;16.60;;;;;;;2.56;88.01;100321.98;102501;1284;24287;-62
2022/11/09 05:18:49;;;;;;;27.90;16.50;;;;;;;2.56;88.02;100326.14;102440;1291;138068;-62
2022/11/09 05:21:16;;;;;;;29.60;15.70;;;;;;;2.55;87.90;100323.20;102329;1295;22485;-61
2022/11/09 05:23:58;;;;;;;;;;;;;;;2.55;87.95;100328.08;102220;1289;138333;-61
2022/11/09 05:26:33;;;;;;;27.00;17.20;;;;;;;2.54;87.95;100330.54;102435;1295;23871;-62
2022/11/09 05:29:02;;;;;;;24.20;16.30;;;;;;;2.53;88.07;100334.75;102233;1300;139164;-61
2022/11/09 05:31:29;;;;;;;26.40;15.40;;;;;;;2.53;88.10;100337.10;106704;1306;23211;-62
2022/11/09 05:33:55;;;;;;;;;;;;;;;2.53;88.06;100339.83;106783;1303;22352;-62
2022/11/09 05:36:22;;;;;;;24.10;12.80;;;;;;;2.53;88.12;100342.16;106690;1301;124193;-62
2022/11/09 05:38:49;;;;;;;23.10;13.60;;;;;;;2.53;88.29;100341.98;106761;1288;22369;-62
2022/11/09 05:41:16;;;;;;;24.30;14.20;;;;;;;2.54;88.26;100344.66;106628;1306;138814;-63
2022/11/09 05:43:43;;;;;;;;;;;;;;;2.56;88.38;100352.30;106787;1297;22437;-62
2022/11/09 05:46:12;;;;;;;22.60;12.50;;;;;;;2.60;88.60;100354.71;104044;1291;25446;-61
2022/11/09 05:48:39;;;;;;;23.50;13.70;;;;;;;2.64;88.93;100350.95;102407;1295;138841;-61
2022/11/09 05:51:07;;;;;;;24.00;14.00;;;;;;;2.70;89.03;100354.05;102440;1288;22485;-60
2022/11/09 05:53:34;;;;;;;23.50;13.50;;;;;;;2.75;89.25;100356.48;102348;1309;139166;-61
2022/11/09 05:56:04;;;;;;;;;;;;;;;2.80;89.37;100359.77;102520;1301;22614;-61
2022/11/09 05:58:35;;;;;;;24.00;13.70;;;;;;;2.85;89.71;100362.95;102261;1293;125314;-60
2022/11/09 06:01:07;;;;;;;24.40;15.10;;;;;;;2.89;89.65;100364.48;102456;1295;22484;-61
2022/11/09 06:03:34;;;;;;;24.70;14.80;;;;;;;2.94;89.92;100366.79;102519;1287;24311;-62
2022/11/09 06:06:04;;;;;;;;;;;;;;;3.00;90.04;100366.63;102361;1289;138094;-62
2022/11/09 06:08:34;;;;;;;25.10;13.70;;;;;;;3.07;90.24;100367.94;106655;1286;22108;-62
2022/11/09 06:11:03;;;;;;;24.30;15.60;;;;;;;3.10;90.84;100360.73;106656;1293;139097;-62
2022/11/09 06:13:30;;;;;;;23.80;14.90;;;;;;;3.22;90.85;100371.10;106662;1297;22350;-62
2022/11/09 06:15:58;;;;;;;;;;;;;;;3.30;91.29;100371.12;106627;1297;22414;-63
2022/11/09 06:18:26;;;;;;;24.20;14.90;;;;;;;3.39;91.59;100373.75;106547;1303;124213;-62
2022/11/09 06:20:53;;;;;;;29.00;16.20;;;;;;;3.49;91.74;100375.46;106679;1305;22140;-62
2022/11/09 06:23:24;;;;;;;41.40;20.40;;;;;;;3.60;92.10;100378.40;106562;1305;138336;-62
2022/11/09 06:25:52;;;;;;;60.90;27.70;;;;;;;3.71;92.63;100376.52;105420;1293;25271;-61
2022/11/09 06:28:19;;;;;;;94.20;34.60;;;;;;;3.84;93.09;100383.73;106599;1305;22202;-62
2022/11/09 06:30:46;;;;;;;95.60;31.30;;;;;;;3.97;93.37;100386.55;106556;1305;140331;-62
2022/11/09 06:33:13;;;;;;;52.10;24.30;;;;;;;4.11;93.74;100387.37;106642;1305;22105;-62
2022/11/09 06:35:39;;;;;;;41.90;21.10;;;;;;;4.25;94.30;100388.44;106076;1305;138382;-62
2022/11/09 06:38:08;;;;;;;31.50;18.90;;;;;;;4.38;94.31;100384.27;102526;1303;25300;-62
2022/11/09 06:40:35;;;;;;;33.40;19.60;;;;;;;4.51;94.49;100385.18;102348;1305;138299;-61
2022/11/09 06:43:02;;;;;;;28.40;18.30;;;;;;;4.64;94.97;100383.23;106490;1304;22208;-62
2022/11/09 06:45:30;;;;;;;27.70;19.30;;;;;;;4.76;94.80;100379.10;106634;1305;22190;-63
2022/11/09 06:47:57;;;;;;;29.30;18.50;;;;;;;4.88;95.13;100378.05;106698;1302;138942;-62
2022/11/09 06:50:24;;;;;;;38.50;21.20;;;;;;;5.00;95.35;100380.06;106722;1303;22258;-62
2022/11/09 06:52:58;;;;;;;30.60;20.80;;;;;;;5.12;95.51;100377.38;106673;1303;140009;-62
2022/11/09 06:55:26;;;;;;;39.30;22.40;;;;;;;5.25;95.70;100377.21;106832;1296;22130;-51
2022/11/09 06:57:52;;;;;;;41.30;22.50;;;;;;;5.38;95.64;100371.80;106776;1303;22306;-52
2022/11/09 07:00:19;;;;;;;;;;;;;;;5.50;95.80;100372.71;106685;1303;138202;-51
2022/11/09 07:02:46;;;;;;;37.40;22.00;;;;;;;5.60;95.58;100372.20;106803;1302;22123;-52
2022/11/09 07:05:13;;;;;;;;;;;;;;;5.70;95.61;100370.34;106610;1302;138608;-52
2022/11/09 07:07:39;;;;;;;43.80;24.40;;;;;;;5.81;95.70;100371.02;106779;1305;22400;-52
2022/11/09 07:10:06;;;;;;;38.40;23.40;;;;;;;5.92;95.44;100373.35;106810;1303;22162;-52
2022/11/09 07:12:34;;;;;;;34.20;25.00;;;;;;;6.02;95.36;100371.95;106636;1302;139423;-52
2022/11/09 07:15:01;;;;;;;42.30;24.30;;;;;;;6.13;95.55;100366.16;106772;1303;23012;-50
2022/11/09 07:17:31;;;;;;;34.50;23.60;;;;;;;6.24;95.15;100364.87;106694;1300;138291;-52
2022/11/09 07:19:58;;;;;;;33.20;23.00;;;;;;;6.34;95.05;100365.02;106710;1294;22251;-51
2022/11/09 07:22:28;;;;;;;;;;;;;;;6.45;94.95;100367.35;106770;1302;22346;-51
2022/11/09 07:24:55;;;;;;;27.80;19.90;;;;;;;6.56;94.73;100366.53;106713;1285;125828;-52
2022/11/09 07:27:22;;;;;;;;;;;;;;;6.67;94.49;100369.56;102916;1285;24324;-51
2022/11/09 07:29:53;;;;;;;32.10;18.70;;;;;;;6.77;94.29;100368.12;106618;1306;124634;-49
2022/11/09 07:32:20;;;;;;;;;;;;;;;6.87;93.99;100367.92;106781;1303;22353;-53
2022/11/09 07:35:08;;;;;;;26.90;18.90;;;;;;;6.96;93.77;100367.80;106648;1305;124943;-53
2022/11/09 07:37:35;;;;;;;26.70;18.20;;;;;;;7.06;93.72;100369.19;106772;1296;22326;-51
2022/11/09 07:40:02;;;;;;;25.40;18.10;;;;;;;7.16;93.46;100374.65;106761;1291;22209;-51
2022/11/09 07:42:29;;;;;;;23.90;18.10;;;;;;;7.26;93.06;100376.14;106652;1303;139278;-51
2022/11/09 07:44:56;;;;;;;23.70;17.00;;;;;;;7.35;92.76;100374.60;106773;1303;22569;-51
2022/11/09 07:47:23;;;;;;;;;;;;;;;7.46;92.53;100374.93;106703;1304;139390;-51
2022/11/09 07:49:49;;;;;;;22.60;15.90;;;;;;;7.56;92.17;100373.53;106377;1302;124650;-52
2022/11/09 07:52:16;;;;;;;;;;;;;;;7.62;91.78;100367.56;106700;1301;22392;-52
2022/11/09 07:54:43;;;;;;;21.30;16.10;;;;;;;7.74;91.48;100372.67;106746;1306;22186;-51
2022/11/09 07:57:16;;;;;;;22.50;17.20;;;;;;;7.83;91.04;100375.64;106500;1306;138705;-62
2022/11/09 07:59:43;;;;;;;;;;;;;;;7.92;90.60;100376.55;106703;1306;22427;-62
2022/11/09 08:02:10;;;;;;;23.30;14.30;;;;;;;8.00;90.17;100373.41;106503;1305;125003;-62
2022/11/09 08:04:38;;;;;;;19.10;13.00;;;;;;;8.10;89.79;100376.20;106581;1305;22297;-62
2022/11/09 08:07:04;;;;;;;;;;;;;;;8.18;89.34;100375.07;106619;1306;22409;-62
2022/11/09 08:09:31;;;;;;;19.20;13.00;;;;;;;8.27;88.96;100377.02;106512;1292;125903;-62
2022/11/09 08:11:58;;;;;;;;;;;;;;;8.34;88.80;100373.55;106654;1306;22349;-61
2022/11/09 08:14:25;;;;;;;21.90;13.40;;;;;;;8.42;88.49;100373.08;106540;1294;125006;-62
2022/11/09 08:16:52;;;;;;;;;;;;;;;8.51;87.92;100370.74;106605;1305;22388;-62
2022/11/09 08:19:18;;;;;;;11.70;8.10;;;;;;;8.59;86.94;100367.23;106642;1306;124402;-62
2022/11/09 08:21:45;;;;;;;;;;;;;;;8.67;85.96;100364.98;106678;1298;22370;-63
2022/11/09 08:24:12;;;;;;;12.50;8.20;;;;;;;8.75;85.12;100363.44;106600;1306;22933;-62
2022/11/09 08:26:39;;;;;;;;;;;;;;;8.82;84.53;100364.27;106585;1304;138776;-62
2022/11/09 08:29:06;;;;;;;59.60;35.00;;;;;;;8.90;83.83;100364.11;106690;1309;23074;-62
2022/11/09 08:31:33;;;;;;;;;;;;;;;8.96;83.05;100363.53;106550;1286;139534;-59
2022/11/09 08:34:00;;;;;;;20.50;12.30;;;;;;;9.05;82.50;100362.44;106731;1306;22198;-60
2022/11/09 08:36:28;;;;;;;;;;;;;;;9.12;82.06;100361.37;106683;1305;22555;-60
2022/11/09 08:38:58;;;;;;;12.40;7.50;;;;;;;9.19;81.62;100358.77;106543;1305;124454;-60
2022/11/09 08:41:24;;;;;;;11.10;7.40;;;;;;;9.27;81.13;100361.69;106609;1305;22184;-60
2022/11/09 08:43:51;;;;;;;;;;;;;;;9.33;80.66;100359.44;106512;1294;138154;-60
2022/11/09 08:46:18;;;;;;;8.70;5.40;;;;;;;9.40;80.12;100360.21;106610;1305;22312;-60
2022/11/09 08:48:45;;;;;;;;;;;;;;;9.47;79.82;100357.83;106639;1288;22402;-60
2022/11/09 08:51:11;;;;;;;8.80;5.30;;;;;;;9.55;79.54;100352.85;106527;1296;125861;-60
2022/11/09 08:53:38;;;;;;;;;;;;;;;9.62;78.90;100349.11;106756;1306;22377;-61
2022/11/09 08:56:06;;;;;;;8.00;4.80;;;;;;;9.69;78.33;100344.77;106542;1294;124215;-61
2022/11/09 08:58:33;;;;;;;10.30;5.80;;;;;;;9.74;78.02;100348.52;106630;1305;22143;-61
2022/11/09 09:01:00;;;;;;;8.70;5.60;;;;;;;9.79;77.68;100348.83;106636;1288;22970;-60
2022/11/09 09:03:27;;;;;;;13.70;5.60;;;;;;;9.84;77.49;100351.45;106511;1305;158689;-60
2022/11/09 09:07:17;;;;;;;9.60;5.90;;;;;;;9.93;76.81;100351.53;99383;1324;558238;-59
2022/11/09 09:09:44;;;;;;;;;;;;;;;9.93;76.49;100350.70;105276;1321;23140;-60
2022/11/09 09:12:11;;;;;;;12.70;7.00;;;;;;;9.97;76.41;100352.30;105690;1313;22122;-60
2022/11/09 09:14:37;;;;;;;6.90;5.20;;;;;;;9.98;76.17;100352.28;105461;1316;137333;-60
2022/11/09 09:17:04;;;;;;;10.90;6.00;;;;;;;9.99;76.14;100349.00;105534;1309;22112;-60
2022/11/09 09:19:31;;;;;;;9.40;6.50;;;;;;;10.02;75.91;100351.46;105329;1317;149269;-59
2022/11/09 09:21:59;;;;;;;7.40;5.20;;;;;;;10.06;76.09;100343.41;105837;1295;22178;-59
2022/11/09 09:24:26;;;;;;;9.90;6.10;;;;;;;10.10;75.88;100342.80;105875;1313;22213;-59
2022/11/09 09:26:53;;;;;;;8.60;5.80;;;;;;;10.12;75.57;100335.33;105838;1315;137895;-59
2022/11/09 09:29:19;;;;;;;10.60;5.40;;;;;;;10.15;75.37;100336.59;106003;1310;22954;-60
2022/11/09 09:31:48;;;;;;;8.60;5.30;;;;;;;10.17;75.28;100334.64;105872;1314;139898;-60
2022/11/09 09:34:15;;;;;;;;;;;;;;;10.20;75.36;100331.38;106120;1304;22419;-60
2022/11/09 09:36:44;;;;;;;6.80;4.40;;;;;;;10.25;75.11;100332.58;106084;1305;22118;-60
2022/11/09 09:39:14;;;;;;;5.90;4.10;;;;;;;10.30;74.65;100330.71;105990;1295;138525;-61
2022/11/09 09:41:54;;;;;;;9.40;4.90;;;;;;;10.35;74.17;100326.32;106087;1305;23521;-60
2022/11/09 09:44:44;;;;;;;5.90;4.90;;;;;;;10.39;73.79;100325.65;105553;1318;137215;-60
2022/11/09 09:47:15;;;;;;;21.10;11.50;;;;;;;10.41;73.42;100325.27;106075;1304;22184;-63
2022/11/09 09:49:44;;;;;;;12.80;6.70;;;;;;;10.43;73.04;100322.80;106290;1309;138815;-61
2022/11/09 09:52:48;;;;;;;8.50;5.00;;;;;;;10.46;72.37;100318.19;106154;1312;22156;-61
2022/11/09 09:55:36;;;;;;;5.50;4.10;;;;;;;10.49;72.16;100321.82;105352;1317;138516;-60
2022/11/09 09:58:12;;;;;;;7.70;4.40;;;;;;;10.53;71.80;100320.53;105455;1318;23163;-60
2022/11/09 10:00:39;;;;;;;9.10;4.10;;;;;;;10.55;71.61;100319.21;105344;1313;22299;-60
2022/11/09 10:03:17;;;;;;;6.40;3.60;;;;;;;10.58;71.33;100319.23;105142;1320;137568;-61
2022/11/09 10:06:19;;;;;;;5.20;3.30;;;;;;;10.61;71.47;100318.63;104351;1318;22516;-61
2022/11/09 10:09:00;;;;;;;6.30;3.40;;;;;;;10.63;71.17;100315.15;101055;1315;138089;-60
2022/11/09 10:11:42;;;;;;;5.80;4.20;;;;;;;10.65;71.01;100313.45;105124;1317;22939;-62
2022/11/09 10:14:22;;;;;;;8.70;5.10;;;;;;;10.68;71.21;100314.53;105208;1312;138107;-63
2022/11/09 10:17:24;;;;;;;90.90;48.60;;;;;;;10.70;71.04;100312.61;105470;1318;22266;-62
2022/11/09 10:20:00;;;;;;;10.20;6.10;;;;;;;10.73;70.92;100314.48;105325;1318;137903;-61
2022/11/09 10:22:36;;;;;;;5.80;3.80;;;;;;;10.77;70.72;100313.03;105439;1310;22241;-60
2022/11/09 10:25:09;;;;;;;8.30;4.00;;;;;;;10.80;70.44;100311.17;105302;1312;22601;-60
2022/11/09 10:27:55;;;;;;;8.40;3.90;;;;;;;10.84;70.26;100302.23;105301;1319;22219;-60
2022/11/09 10:30:22;;;;;;;10.00;4.10;;;;;;;10.87;70.19;100302.03;105429;1313;22279;-60
2022/11/09 10:32:53;;;;;;;4.80;3.30;;;;;;;10.89;69.71;100298.90;106204;1306;137904;-61
2022/11/09 10:35:25;;;;;;;5.20;3.30;;;;;;;10.90;69.35;100295.82;106408;1293;22100;-61
2022/11/09 10:37:53;;;;;;;11.00;3.30;;;;;;;10.90;69.11;100296.15;106304;1309;137983;-61
2022/11/09 10:40:23;;;;;;;6.80;3.70;;;;;;;10.90;68.99;100295.34;106368;1295;22254;-61
2022/11/09 10:43:12;;;;;;;9.60;3.90;;;;;;;10.92;68.72;100293.20;106413;1309;22098;-60
2022/11/09 10:46:04;;;;;;;11.80;4.40;;;;;;;10.96;68.57;100289.83;106414;1309;22038;-60
2022/11/09 10:48:49;;;;;;;7.60;3.90;;;;;;;10.98;68.48;100290.14;106387;1302;22112;-60
2022/11/09 10:51:45;;;;;;;7.00;4.00;;;;;;;10.98;68.39;100289.76;106103;1304;138817;-60
2022/11/09 10:54:33;;;;;;;7.90;3.90;;;;;;;11.00;68.52;100287.67;106403;1309;22117;-60
2022/11/09 10:57:20;;;;;;;6.00;4.00;;;;;;;11.00;68.32;100287.63;106277;1309;137794;-60
2022/11/09 11:00:13;;;;;;;7.90;4.70;;;;;;;11.03;68.34;100284.25;106418;1307;22293;-61
2022/11/09 11:02:59;;;;;;;7.90;3.50;;;;;;;11.07;68.67;100281.66;106313;1304;138084;-60
2022/11/09 11:05:44;;;;;;;4.10;3.50;;;;;;;11.10;68.40;100281.56;106082;1309;22102;-60
2022/11/09 11:08:36;;;;;;;7.00;4.00;;;;;;;11.13;68.32;100277.08;106024;1309;138423;-60
2022/11/09 11:11:28;;;;;;;7.30;4.20;;;;;;;11.14;68.57;100272.63;106427;1309;22105;-60
2022/11/09 11:14:32;;;;;;;7.00;3.90;;;;;;;11.16;68.32;100272.61;106119;1309;137315;-58
2022/11/09 11:17:21;;;;;;;9.90;6.70;;;;;;;11.17;68.26;100271.48;106432;1309;22195;-58
2022/11/09 11:20:32;;;;;;;7.80;4.10;;;;;;;11.19;68.45;100276.33;106069;1301;138072;-59
2022/11/09 11:23:18;;;;;;;9.60;5.10;;;;;;;11.21;68.29;100274.02;106405;1300;22343;-61
2022/11/09 11:26:24;;;;;;;27.60;11.60;;;;;;;11.21;68.17;100269.48;106284;1309;137273;-59
2022/11/09 11:29:33;;;;;;;17.40;8.60;;;;;;;11.22;67.77;100267.99;106249;1309;23011;-60
2022/11/09 11:32:18;;;;;;;12.70;5.80;;;;;;;11.22;67.98;100267.23;106265;1309;137279;-60
2022/11/09 11:35:05;;;;;;;25.20;10.60;;;;;;;11.21;68.32;100265.73;106391;1309;22278;-60
2022/11/09 11:38:21;;;;;;;15.00;7.30;;;;;;;11.20;68.02;100263.63;106266;1303;137880;-60